createdAt,value
2022-08-05T00:01:27.910Z,4.63
2022-08-05T00:06:33.192Z,4.47
2022-08-05T00:11:48.214Z,4.30
2022-08-05T00:16:53.030Z,4.17
2022-08-05T00:21:55.571Z,5.17
2022-08-05T00:26:57.321Z,4.10
2022-08-05T00:32:12.596Z,4.30
2022-08-05T00:37:15.973Z,4.90
2022-08-05T00:42:31.928Z,4.90
2022-08-05T00:47:56.302Z,4.53
2022-08-05T00:52:55.815Z,4.77
2022-08-05T00:57:58.980Z,4.40
2022-08-05T01:03:01.007Z,4.17
2022-08-05T01:08:40.391Z,4.83
2022-08-05T01:13:58.735Z,5.30
2022-08-05T01:18:56.606Z,5.87
2022-08-05T01:24:14.424Z,6.90
2022-08-05T01:29:23.238Z,6.63
2022-08-05T01:34:27.119Z,6.60
2022-08-05T01:39:47.287Z,7.70
2022-08-05T01:44:54.060Z,7.23
2022-08-05T01:50:01.704Z,8.07
2022-08-05T01:55:06.801Z,7.97
2022-08-05T02:00:11.617Z,7.67
2022-08-05T02:05:14.025Z,7.73
2022-08-05T02:10:17.562Z,7.83
2022-08-05T02:15:26.487Z,7.27
2022-08-05T02:20:40.506Z,7.90
2022-08-05T02:25:50.174Z,7.93
2022-08-05T02:30:56.539Z,8.73
2022-08-05T02:36:01.109Z,8.00
2022-08-05T02:41:14.543Z,8.60
2022-08-05T02:46:18.795Z,9.30
2022-08-05T02:52:03.233Z,8.30
2022-08-05T02:56:51.136Z,9.90
2022-08-05T03:01:54.297Z,9.47
2022-08-05T03:06:59.334Z,9.43
2022-08-05T03:12:01.893Z,9.20
2022-08-05T03:17:08.706Z,9.50
2022-08-05T03:22:16.234Z,10.43
2022-08-05T03:27:21.861Z,8.60
2022-08-05T03:32:30.680Z,10.00
2022-08-05T03:37:45.702Z,4.93
2022-08-05T03:42:51.670Z,4.43
2022-08-05T03:47:56.709Z,4.70
2022-08-05T03:54:59.154Z,4.50
2022-08-05T03:58:28.965Z,3.83
2022-08-05T04:03:35.849Z,4.00
2022-08-05T04:08:39.871Z,3.87
2022-08-05T04:13:50.487Z,3.93
2022-08-05T04:18:54.778Z,3.90
2022-08-05T04:24:06.650Z,4.40
2022-08-05T04:29:08.753Z,3.83
2022-08-05T04:34:19.082Z,4.50
2022-08-05T04:39:33.522Z,4.80
2022-08-05T04:44:37.319Z,4.27
2022-08-05T04:50:02.977Z,4.50
2022-08-05T04:55:13.761Z,4.40
2022-08-05T05:00:16.872Z,3.90
2022-08-05T05:05:28.779Z,4.30
2022-08-05T05:10:33.137Z,4.17
2022-08-05T05:15:59.272Z,4.40
2022-08-05T05:20:57.322Z,4.30
2022-08-05T05:26:00.378Z,4.10
2022-08-05T05:31:02.336Z,3.70
2022-08-05T05:36:07.825Z,4.70
2022-08-05T05:41:12.262Z,4.20
2022-08-05T05:46:18.919Z,4.20
2022-08-05T05:51:21.717Z,5.03
2022-08-05T05:56:26.120Z,4.43
2022-08-05T06:01:37.495Z,5.00
2022-08-05T06:06:41.842Z,5.50
2022-08-05T06:11:58.939Z,5.40
2022-08-05T06:17:22.301Z,4.90
2022-08-05T06:22:29.754Z,4.60
2022-08-05T06:28:10.473Z,5.90
2022-08-05T06:32:53.493Z,5.70
2022-08-05T06:37:58.403Z,5.57
2022-08-05T06:43:00.673Z,5.50
2022-08-05T06:48:36.110Z,5.00
2022-08-05T06:53:27.726Z,6.00
2022-08-05T06:58:36.363Z,5.97
2022-08-05T07:03:38.320Z,6.13
2022-08-05T07:08:40.029Z,5.10
2022-08-05T07:14:02.260Z,6.80
2022-08-05T07:19:04.236Z,6.13
2022-08-05T07:24:11.177Z,6.70
2022-08-05T07:29:13.496Z,6.67
2022-08-05T07:34:15.516Z,6.33
2022-08-05T07:39:24.678Z,5.77
2022-08-05T07:44:46.331Z,6.97
2022-08-05T07:49:54.245Z,6.47
2022-08-05T07:54:57.044Z,5.67
2022-08-05T07:59:59.721Z,6.50
2022-08-05T08:05:01.598Z,5.73
2022-08-05T08:10:03.639Z,6.10
2022-08-05T08:15:14.301Z,5.63
2022-08-05T08:20:43.194Z,6.30
2022-08-05T08:25:59.795Z,5.60
2022-08-05T08:31:01.187Z,6.20
2022-08-05T08:36:29.723Z,6.40
2022-08-05T08:41:50.721Z,5.60
2022-08-05T08:46:48.018Z,5.50
2022-08-05T08:52:03.433Z,5.63
2022-08-05T08:57:11.314Z,5.43
2022-08-05T09:02:14.486Z,5.10
2022-08-05T09:07:28.533Z,5.40
2022-08-05T09:12:31.340Z,5.37
2022-08-05T09:17:42.826Z,5.07
2022-08-05T09:23:05.555Z,3.80
2022-08-05T09:28:14.993Z,3.67
2022-08-05T09:33:23.511Z,3.57
2022-08-05T09:38:36.718Z,4.00
2022-08-05T09:43:41.659Z,2.80
2022-08-05T09:48:55.122Z,2.93
2022-08-05T09:54:08.392Z,3.30
2022-08-05T09:59:17.265Z,3.40
2022-08-05T10:04:19.324Z,2.93
2022-08-05T10:09:44.919Z,3.17
2022-08-05T10:14:47.243Z,2.40
2022-08-05T10:20:04.458Z,2.57
2022-08-05T10:25:14.387Z,2.80
2022-08-05T10:31:20.102Z,2.50
2022-08-05T10:35:40.668Z,2.87
2022-08-05T10:40:52.118Z,3.30
2022-08-05T10:46:06.706Z,3.40
2022-08-05T10:51:21.942Z,3.10
2022-08-05T10:56:36.376Z,3.10
2022-08-05T11:01:55.662Z,2.60
2022-08-05T11:07:05.492Z,2.90
2022-08-05T11:12:43.815Z,2.70
2022-08-05T11:17:56.878Z,2.47
2022-08-05T11:23:33.626Z,3.07
2022-08-05T11:28:51.382Z,2.77
2022-08-05T11:33:56.042Z,2.43
2022-08-05T11:39:00.371Z,2.67
2022-08-05T11:44:08.273Z,2.60
2022-08-05T11:49:14.076Z,2.97
2022-08-05T11:54:33.931Z,3.23
2022-08-05T11:59:41.339Z,3.63
2022-08-05T12:04:53.474Z,3.10
2022-08-05T12:10:09.042Z,3.00
2022-08-05T12:15:38.353Z,2.87
2022-08-05T12:20:41.823Z,2.37
2022-08-05T12:25:53.638Z,2.53
2022-08-05T12:31:02.476Z,2.00
2022-08-05T12:36:08.600Z,2.30
2022-08-05T12:41:13.516Z,3.70
2022-08-05T12:46:29.422Z,2.07
2022-08-05T12:52:12.603Z,2.40
2022-08-05T12:56:55.435Z,2.70
2022-08-05T13:02:07.162Z,3.20
2022-08-05T13:07:16.126Z,3.00
2022-08-05T13:12:20.155Z,5.83
2022-08-05T13:17:31.646Z,3.47
2022-08-05T13:22:43.980Z,3.70
2022-08-05T13:27:53.736Z,3.50
2022-08-05T13:32:56.511Z,3.20
2022-08-05T13:37:58.400Z,3.20
2022-08-05T13:43:12.130Z,3.20
2022-08-05T13:48:57.908Z,3.20
2022-08-05T13:53:48.221Z,3.03
2022-08-05T13:58:53.311Z,3.67
2022-08-05T14:04:14.083Z,5.23
2022-08-05T14:09:16.208Z,2.87
2022-08-05T14:14:23.281Z,2.27
2022-08-05T14:19:27.882Z,2.00
2022-08-05T14:24:30.667Z,2.43
2022-08-05T14:29:34.549Z,2.53
2022-08-05T14:34:36.314Z,8.53
2022-08-05T14:39:49.610Z,3.23
2022-08-05T14:44:58.419Z,2.70
2022-08-05T14:50:06.684Z,2.80
2022-08-05T14:55:16.264Z,2.70
2022-08-05T15:00:21.410Z,2.50
2022-08-05T15:06:08.379Z,2.60
2022-08-05T15:10:52.007Z,2.97
2022-08-05T15:15:56.583Z,3.40
2022-08-05T15:20:58.403Z,2.50
2022-08-05T15:26:09.485Z,2.40
2022-08-05T15:31:11.640Z,3.17
2022-08-05T15:36:17.447Z,2.80
2022-08-05T15:41:27.401Z,2.47
2022-08-05T15:46:49.144Z,2.40
2022-08-05T15:52:13.080Z,2.10
2022-08-05T15:57:16.044Z,2.40
2022-08-05T16:02:19.484Z,3.83
2022-08-05T16:07:29.541Z,2.90
2022-08-05T16:12:31.484Z,3.00
2022-08-05T16:17:33.771Z,3.00
2022-08-05T16:22:36.032Z,3.20
2022-08-05T16:28:00.851Z,2.83
2022-08-05T16:33:01.635Z,3.20
2022-08-05T16:38:18.420Z,3.40
2022-08-05T16:43:25.430Z,3.67
2022-08-05T16:48:33.578Z,3.60
2022-08-05T16:54:05.331Z,3.23
2022-08-05T16:59:08.492Z,3.63
2022-08-05T17:04:10.517Z,3.60
2022-08-05T17:09:12.211Z,4.07
2022-08-05T17:14:22.148Z,4.30
2022-08-05T17:19:36.410Z,3.47
2022-08-05T17:24:40.951Z,4.40
2022-08-05T17:29:50.177Z,3.83
2022-08-05T17:35:01.531Z,3.60
2022-08-05T17:40:05.490Z,4.13
2022-08-05T17:45:17.837Z,4.10
2022-08-05T17:50:28.910Z,3.67
2022-08-05T17:55:34.296Z,3.93
2022-08-05T18:00:45.489Z,4.20
2022-08-05T18:05:53.430Z,3.57
2022-08-05T18:10:56.064Z,3.80
2022-08-05T18:15:59.143Z,3.67
2022-08-05T18:21:00.875Z,3.50
2022-08-05T18:26:03.500Z,3.90
2022-08-05T18:31:07.198Z,9.23
2022-08-05T18:36:15.307Z,4.27
2022-08-05T18:41:54.956Z,4.10
2022-08-05T18:46:41.053Z,3.37
2022-08-05T18:52:08.998Z,3.23
2022-08-05T18:57:15.353Z,2.70
2022-08-05T19:02:28.299Z,2.90
2022-08-05T19:07:45.174Z,2.70
2022-08-05T19:12:48.560Z,2.40
2022-08-05T19:18:08.498Z,2.00
2022-08-05T19:24:03.861Z,2.10
2022-08-05T19:28:34.928Z,1.83
2022-08-05T19:33:38.046Z,1.93
2022-08-05T19:38:43.683Z,1.53
2022-08-05T19:44:05.506Z,2.37
2022-08-05T19:49:07.124Z,1.60
2022-08-05T19:54:25.517Z,1.50
2022-08-05T19:59:56.131Z,1.40
2022-08-05T20:04:58.685Z,1.40
2022-08-05T20:10:01.256Z,1.37
2022-08-05T20:15:03.024Z,1.20
2022-08-05T20:20:09.507Z,1.27
2022-08-05T20:25:12.825Z,1.50
2022-08-05T20:30:14.528Z,1.30
2022-08-05T20:35:19.967Z,1.10
2022-08-05T20:40:21.673Z,1.10
2022-08-05T20:45:23.333Z,1.30
2022-08-05T20:50:45.577Z,1.07
2022-08-05T20:55:56.663Z,1.20
2022-08-05T21:01:10.303Z,1.20
2022-08-05T21:06:27.819Z,1.00
2022-08-05T21:12:10.424Z,1.17
2022-08-05T21:16:52.196Z,1.00
2022-08-05T21:21:54.184Z,1.20
2022-08-05T21:26:58.314Z,1.17
2022-08-05T21:32:03.542Z,0.90
2022-08-05T21:37:05.334Z,1.10
2022-08-05T21:42:07.331Z,1.03
2022-08-05T21:47:55.603Z,1.00
2022-08-05T21:52:50.713Z,1.10
2022-08-05T21:57:52.691Z,1.17
2022-08-05T22:02:55.352Z,1.17
2022-08-05T22:07:59.470Z,1.20
2022-08-05T22:13:08.846Z,1.33
2022-08-05T22:18:25.792Z,1.20
2022-08-05T22:24:02.320Z,1.20
2022-08-05T22:29:05.617Z,1.40
2022-08-05T22:34:07.292Z,1.00
2022-08-05T22:39:12.697Z,1.40
2022-08-05T22:44:14.579Z,1.30
2022-08-05T22:49:46.139Z,1.20
2022-08-05T22:54:46.689Z,1.20
2022-08-05T22:59:54.093Z,1.40
2022-08-05T23:04:56.314Z,1.13
2022-08-05T23:10:01.575Z,1.27
2022-08-05T23:15:09.011Z,1.50
2022-08-05T23:20:17.934Z,1.40
2022-08-05T23:25:52.197Z,1.50
2022-08-05T23:30:43.326Z,1.47
2022-08-05T23:35:45.687Z,1.30
2022-08-05T23:40:50.194Z,1.33
2022-08-05T23:45:52.208Z,1.50
2022-08-05T23:50:55.068Z,1.40
2022-08-05T23:55:57.170Z,1.30
